createdAt,value
2018-07-04T00:00:01.702Z,99.30
2018-07-04T00:02:41.460Z,99.10
2018-07-04T00:05:21.000Z,98.70
2018-07-04T00:08:00.760Z,98.90
2018-07-04T00:10:40.715Z,99.20
2018-07-04T00:13:20.357Z,99.00
2018-07-04T00:16:00.034Z,99.00
2018-07-04T00:18:40.482Z,99.00
2018-07-04T00:21:20.145Z,98.70
2018-07-04T00:23:59.614Z,99.10
2018-07-04T00:26:39.369Z,98.80
2018-07-04T00:29:19.052Z,99.20
2018-07-04T00:31:59.155Z,99.00
2018-07-04T00:34:39.229Z,99.10
2018-07-04T00:37:18.997Z,99.20
2018-07-04T00:39:58.634Z,99.00
2018-07-04T00:42:40.014Z,99.30
2018-07-04T00:45:19.839Z,99.60
2018-07-04T00:47:59.924Z,99.50
2018-07-04T00:50:40.094Z,99.90
2018-07-04T00:53:19.786Z,99.80
2018-07-04T00:55:59.603Z,99.90
2018-07-04T00:58:39.346Z,99.90
2018-07-04T01:01:19.042Z,99.90
2018-07-04T01:03:58.759Z,99.80
2018-07-04T01:06:39.163Z,99.90
2018-07-04T01:09:18.974Z,99.80
2018-07-04T01:11:58.729Z,99.90
2018-07-04T01:14:38.394Z,99.90
2018-07-04T01:17:18.039Z,99.90
2018-07-04T01:19:58.665Z,99.90
2018-07-04T01:22:38.687Z,99.90
2018-07-04T01:25:18.671Z,99.90
2018-07-04T01:27:58.426Z,99.90
2018-07-04T01:30:38.162Z,99.90
2018-07-04T01:33:18.342Z,99.90
2018-07-04T01:35:58.006Z,99.90
2018-07-04T01:38:38.370Z,99.90
2018-07-04T01:41:18.036Z,99.90
2018-07-04T01:43:57.783Z,99.90
2018-07-04T01:46:37.343Z,99.90
2018-07-04T01:49:16.983Z,99.90
2018-07-04T01:51:56.611Z,99.90
2018-07-04T01:54:36.527Z,99.90
2018-07-04T01:57:16.278Z,99.90
2018-07-04T01:59:56.019Z,99.90
2018-07-04T02:02:35.733Z,99.90
2018-07-04T02:05:15.363Z,99.90
2018-07-04T02:07:55.036Z,99.90
2018-07-04T02:10:34.991Z,99.90
2018-07-04T02:13:14.594Z,99.90
2018-07-04T02:18:27.948Z,99.90
2018-07-04T02:21:07.604Z,99.90
2018-07-04T02:23:47.318Z,99.90
2018-07-04T02:26:28.020Z,99.90
2018-07-04T02:29:07.584Z,99.90
2018-07-04T02:31:47.346Z,99.90
2018-07-04T02:34:29.044Z,99.90
2018-07-04T02:37:09.174Z,99.90
2018-07-04T02:39:48.732Z,99.90
2018-07-04T02:45:02.831Z,99.90
2018-07-04T02:47:42.611Z,99.90
2018-07-04T02:50:22.207Z,99.90
2018-07-04T02:53:01.739Z,99.90
2018-07-04T02:55:41.262Z,99.90
2018-07-04T02:58:21.181Z,99.90
2018-07-04T03:01:01.078Z,99.90
2018-07-04T03:03:40.818Z,99.90
2018-07-04T03:06:20.458Z,99.90
2018-07-04T03:09:00.037Z,99.90
2018-07-04T03:11:39.642Z,99.90
2018-07-04T03:14:19.545Z,99.90
2018-07-04T03:16:59.054Z,99.90
2018-07-04T03:19:38.790Z,99.90
2018-07-04T03:22:18.383Z,99.90
2018-07-04T03:24:58.156Z,99.90
2018-07-04T03:27:37.894Z,99.90
2018-07-04T03:30:17.767Z,99.90
2018-07-04T03:32:57.477Z,99.90
2018-07-04T03:35:38.166Z,99.90
2018-07-04T03:38:18.019Z,99.90
2018-07-04T03:40:57.706Z,99.90
2018-07-04T03:43:37.263Z,99.90
2018-07-04T03:46:17.319Z,99.90
2018-07-04T03:48:56.954Z,99.90
2018-07-04T03:51:36.651Z,99.90
2018-07-04T03:54:16.306Z,99.90
2018-07-04T03:56:56.073Z,99.90
2018-07-04T03:59:35.838Z,99.90
2018-07-04T04:02:16.050Z,99.90
2018-07-04T04:07:29.469Z,99.90
2018-07-04T04:10:08.982Z,99.90
2018-07-04T04:12:48.735Z,99.90
2018-07-04T04:15:28.546Z,99.90
2018-07-04T04:18:08.505Z,99.90
2018-07-04T04:20:48.060Z,99.90
2018-07-04T04:23:28.487Z,99.90
2018-07-04T04:26:08.091Z,99.90
2018-07-04T04:28:47.971Z,99.90
2018-07-04T04:31:28.708Z,99.90
2018-07-04T04:34:08.736Z,99.90
2018-07-04T04:39:22.684Z,99.90
2018-07-04T04:42:02.131Z,99.90
2018-07-04T04:44:41.760Z,99.90
2018-07-04T04:47:21.244Z,99.90
2018-07-04T04:50:01.326Z,99.90
2018-07-04T04:52:40.794Z,99.90
2018-07-04T04:55:20.500Z,99.90
2018-07-04T04:58:00.130Z,99.90
2018-07-04T05:05:48.042Z,99.90
2018-07-04T05:13:35.748Z,99.90
2018-07-04T05:16:15.275Z,99.90
2018-07-04T05:18:55.414Z,99.90
2018-07-04T05:21:35.653Z,99.90
2018-07-04T05:24:15.262Z,99.90
2018-07-04T05:26:54.786Z,99.90
2018-07-04T05:29:34.386Z,99.90
2018-07-04T05:32:13.998Z,99.90
2018-07-04T05:34:53.707Z,99.90
2018-07-04T05:37:34.426Z,99.70
2018-07-04T05:40:14.119Z,99.10
2018-07-04T05:42:53.875Z,98.90
2018-07-04T05:45:33.329Z,98.00
2018-07-04T05:48:12.844Z,97.50
2018-07-04T05:53:27.382Z,96.50
2018-07-04T05:58:40.969Z,95.10
2018-07-04T06:01:21.723Z,94.00
2018-07-04T06:04:01.526Z,93.00
2018-07-04T06:06:41.198Z,91.70
2018-07-04T06:09:20.945Z,91.20
2018-07-04T06:12:00.822Z,90.00
2018-07-04T06:14:40.445Z,90.50
2018-07-04T06:17:20.157Z,91.10
2018-07-04T06:19:59.863Z,91.30
2018-07-04T06:22:39.450Z,91.80
2018-07-04T06:25:19.430Z,91.70
2018-07-04T06:27:59.101Z,90.40
2018-07-04T06:41:59.426Z,67.90
2018-07-04T06:44:28.571Z,58.20
2018-07-04T06:46:56.068Z,55.90
2018-07-04T06:49:23.443Z,55.60
2018-07-04T06:51:50.935Z,54.50
2018-07-04T06:54:18.529Z,54.50
2018-07-04T06:56:45.923Z,55.10
2018-07-04T06:59:13.329Z,55.60
2018-07-04T07:01:40.663Z,58.00
2018-07-04T07:04:20.466Z,58.80
2018-07-04T07:07:00.156Z,62.20
2018-07-04T07:12:13.808Z,63.30
2018-07-04T07:14:53.762Z,66.30
2018-07-04T07:17:33.684Z,66.10
2018-07-04T07:20:13.566Z,67.80
2018-07-04T07:22:55.281Z,68.10
2018-07-04T07:25:34.907Z,68.70
2018-07-04T07:28:14.567Z,69.90
2018-07-04T07:30:55.034Z,70.40
2018-07-04T07:33:34.777Z,70.50
2018-07-04T07:36:14.339Z,69.20
2018-07-04T07:38:53.827Z,71.50
2018-07-04T07:41:34.073Z,72.20
2018-07-04T07:44:14.025Z,71.90
2018-07-04T07:46:53.822Z,70.70
2018-07-04T07:49:33.635Z,69.30
2018-07-04T07:52:13.900Z,68.60
2018-07-04T07:54:53.626Z,67.50
2018-07-04T07:57:33.475Z,67.40
2018-07-04T08:00:13.059Z,66.10
2018-07-04T08:02:52.695Z,68.30
2018-07-04T08:05:32.515Z,66.30
2018-07-04T08:08:13.001Z,66.10
2018-07-04T08:10:52.544Z,62.00
2018-07-04T08:13:32.102Z,59.80
2018-07-04T08:16:11.910Z,60.00
2018-07-04T08:18:51.750Z,56.60
2018-07-04T08:21:31.266Z,51.10
2018-07-04T08:24:11.289Z,46.70
2018-07-04T08:26:51.103Z,46.30
2018-07-04T08:29:31.261Z,46.20
2018-07-04T08:32:10.871Z,44.70
2018-07-04T08:34:50.960Z,43.20
2018-07-04T08:37:30.651Z,43.30
2018-07-04T08:40:10.971Z,44.60
2018-07-04T08:42:51.235Z,48.50
2018-07-04T08:45:31.311Z,49.70
2018-07-04T08:48:10.926Z,48.80
2018-07-04T08:50:50.852Z,47.90
2018-07-04T08:53:31.105Z,49.40
2018-07-04T08:56:10.928Z,49.80
2018-07-04T09:01:24.414Z,45.40
2018-07-04T09:04:04.122Z,45.10
2018-07-04T09:06:44.552Z,44.80
2018-07-04T09:09:25.642Z,40.30
2018-07-04T09:12:05.862Z,38.90
2018-07-04T09:14:45.426Z,36.00
2018-07-04T09:17:26.983Z,33.70
2018-07-04T09:20:06.661Z,32.90
2018-07-04T09:22:46.270Z,33.30
2018-07-04T09:25:27.622Z,35.80
2018-07-04T09:28:08.015Z,38.10
2018-07-04T09:30:47.786Z,40.10
2018-07-04T09:33:28.921Z,42.40
2018-07-04T09:36:08.567Z,43.40
2018-07-04T09:38:48.535Z,41.90
2018-07-04T09:41:28.563Z,41.90
2018-07-04T09:44:08.623Z,41.10
2018-07-04T09:46:48.841Z,38.10
2018-07-04T09:49:28.867Z,38.40
2018-07-04T09:52:08.706Z,40.70
2018-07-04T09:54:48.996Z,41.90
2018-07-04T09:57:28.738Z,41.00
2018-07-04T10:00:09.158Z,36.90
2018-07-04T10:02:48.918Z,38.10
2018-07-04T10:05:28.872Z,38.30
2018-07-04T10:08:08.598Z,37.70
2018-07-04T10:10:48.138Z,37.00
2018-07-04T10:13:28.438Z,38.20
2018-07-04T10:16:08.117Z,36.80
2018-07-04T10:18:47.906Z,39.50
2018-07-04T10:21:28.534Z,39.30
2018-07-04T10:24:08.114Z,38.10
2018-07-04T10:26:47.914Z,40.80
2018-07-04T10:29:28.591Z,40.40
2018-07-04T10:32:08.480Z,41.90
2018-07-04T10:34:48.070Z,43.00
2018-07-04T10:37:28.609Z,43.00
2018-07-04T10:40:08.692Z,45.30
2018-07-04T10:42:48.947Z,45.90
2018-07-04T10:45:28.786Z,46.50
2018-07-04T10:48:09.254Z,48.10
2018-07-04T10:50:49.103Z,47.00
2018-07-04T10:53:28.887Z,45.50
2018-07-04T10:56:08.438Z,47.20
2018-07-04T10:58:48.278Z,47.90
2018-07-04T11:01:28.682Z,49.10
2018-07-04T11:04:08.791Z,47.70
2018-07-04T11:06:48.568Z,47.30
2018-07-04T11:09:28.703Z,48.40
2018-07-04T11:12:08.667Z,47.00
2018-07-04T11:14:48.973Z,45.80
2018-07-04T11:17:28.871Z,44.10
2018-07-04T11:20:08.749Z,44.90
2018-07-04T11:25:23.630Z,42.60
2018-07-04T11:28:03.307Z,45.20
2018-07-04T11:30:42.925Z,46.00
2018-07-04T11:33:23.682Z,45.30
2018-07-04T11:36:03.858Z,44.10
2018-07-04T11:38:43.582Z,43.30
2018-07-04T11:41:23.310Z,46.50
2018-07-04T11:44:02.880Z,46.00
2018-07-04T11:46:30.648Z,46.30
2018-07-04T11:49:00.431Z,46.90
2018-07-04T11:51:27.778Z,45.60
2018-07-04T11:53:55.350Z,43.50
2018-07-04T11:56:22.671Z,42.90
2018-07-04T11:58:50.018Z,44.90
2018-07-04T12:01:17.406Z,45.30
2018-07-04T12:03:57.068Z,44.20
2018-07-04T12:06:36.670Z,44.90
2018-07-04T12:09:04.349Z,45.30
2018-07-04T12:11:32.606Z,44.50
2018-07-04T12:14:00.344Z,41.80
2018-07-04T12:16:27.670Z,44.30
2018-07-04T12:18:55.012Z,44.50
2018-07-04T12:21:22.379Z,43.50
2018-07-04T12:23:49.736Z,41.90
2018-07-04T12:26:17.058Z,44.10
2018-07-04T12:28:44.407Z,45.20
2018-07-04T12:31:11.737Z,44.40
2018-07-04T12:33:39.078Z,45.10
2018-07-04T12:36:06.486Z,44.90
2018-07-04T12:38:34.886Z,42.70
2018-07-04T12:41:02.295Z,43.50
2018-07-04T12:43:29.842Z,43.20
2018-07-04T12:45:57.198Z,44.10
2018-07-04T12:48:25.552Z,43.90
2018-07-04T12:50:53.270Z,43.30
2018-07-04T12:53:21.964Z,42.30
2018-07-04T12:56:02.453Z,42.80
2018-07-04T12:58:42.156Z,43.50
2018-07-04T13:01:21.875Z,43.60
2018-07-04T13:04:01.607Z,43.30
2018-07-04T13:06:41.269Z,42.30
2018-07-04T13:11:55.394Z,42.40
2018-07-04T13:14:35.053Z,40.90
2018-07-04T13:17:14.843Z,42.10
2018-07-04T13:19:54.455Z,42.00
2018-07-04T13:22:34.113Z,43.20
2018-07-04T13:25:13.916Z,44.10
2018-07-04T13:30:28.211Z,48.00
2018-07-04T13:33:07.859Z,48.70
2018-07-04T13:35:47.363Z,48.90
2018-07-04T13:38:28.583Z,48.70
2018-07-04T13:41:08.154Z,48.00
2018-07-04T13:43:48.206Z,49.50
2018-07-04T13:46:28.913Z,51.10
2018-07-04T13:49:08.693Z,51.10
2018-07-04T13:51:48.859Z,52.50
2018-07-04T13:54:28.926Z,53.40
2018-07-04T13:57:08.624Z,53.70
2018-07-04T13:59:49.042Z,54.10
2018-07-04T14:02:29.973Z,53.60
2018-07-04T14:05:09.771Z,53.80
2018-07-04T14:07:49.671Z,54.70
2018-07-04T14:10:29.438Z,53.90
2018-07-04T14:13:09.180Z,53.60
2018-07-04T14:15:49.434Z,54.40
2018-07-04T14:18:28.886Z,54.10
2018-07-04T14:21:08.511Z,54.60
2018-07-04T14:23:48.069Z,55.10
2018-07-04T14:26:28.895Z,54.90
2018-07-04T14:29:13.930Z,55.70
2018-07-04T14:31:54.370Z,56.50
2018-07-04T14:34:34.348Z,54.30
2018-07-04T14:37:14.025Z,53.50
2018-07-04T14:39:53.815Z,52.90
2018-07-04T14:42:33.563Z,52.20
2018-07-04T14:45:13.208Z,49.80
2018-07-04T14:47:52.947Z,50.10
2018-07-04T14:50:32.490Z,50.10
2018-07-04T14:53:12.515Z,50.30
2018-07-04T14:55:52.074Z,50.30
2018-07-04T14:58:31.935Z,50.30
2018-07-04T15:01:11.711Z,50.30
2018-07-04T15:03:51.729Z,50.20
2018-07-04T15:06:31.442Z,50.40
2018-07-04T15:09:11.017Z,50.50
2018-07-04T15:11:50.683Z,49.80
2018-07-04T15:14:30.207Z,49.20
2018-07-04T15:17:09.830Z,49.60
2018-07-04T15:19:50.332Z,47.60
2018-07-04T15:22:29.937Z,47.60
2018-07-04T15:25:09.578Z,47.30
2018-07-04T15:27:49.275Z,47.10
2018-07-04T15:30:28.910Z,47.20
2018-07-04T15:33:08.698Z,46.70
2018-07-04T15:35:48.811Z,47.20
2018-07-04T15:38:28.490Z,47.60
2018-07-04T15:41:08.377Z,46.80
2018-07-04T15:43:48.106Z,46.50
2018-07-04T15:46:28.791Z,46.20
2018-07-04T15:49:12.779Z,47.00
2018-07-04T15:51:52.545Z,47.70
2018-07-04T15:54:32.804Z,47.00
2018-07-04T15:57:12.523Z,48.10
2018-07-04T15:59:52.347Z,48.20
2018-07-04T16:02:32.543Z,45.30
2018-07-04T16:05:12.133Z,46.40
2018-07-04T16:07:52.370Z,47.00
2018-07-04T16:10:31.918Z,47.80
2018-07-04T16:13:11.630Z,46.10
2018-07-04T16:15:51.255Z,46.10
2018-07-04T16:18:30.870Z,46.60
2018-07-04T16:21:10.815Z,45.10
2018-07-04T16:23:51.145Z,46.60
2018-07-04T16:26:30.767Z,45.30
2018-07-04T16:29:10.431Z,46.10
2018-07-04T16:31:50.100Z,46.00
2018-07-04T16:34:29.726Z,46.20
2018-07-04T16:37:09.331Z,48.00
2018-07-04T16:39:49.338Z,47.70
2018-07-04T16:42:28.880Z,48.40
2018-07-04T16:45:08.662Z,49.10
2018-07-04T16:47:48.454Z,49.80
2018-07-04T16:50:28.634Z,50.20
2018-07-04T16:53:08.427Z,49.60
2018-07-04T16:55:48.975Z,49.20
2018-07-04T16:58:28.701Z,50.10
2018-07-04T17:01:08.337Z,49.30
2018-07-04T17:03:48.265Z,49.40
2018-07-04T17:06:29.078Z,50.40
2018-07-04T17:09:08.780Z,49.50
2018-07-04T17:11:48.590Z,48.60
2018-07-04T17:14:28.863Z,49.90
2018-07-04T17:17:09.250Z,49.60
2018-07-04T17:19:48.983Z,49.70
2018-07-04T17:22:29.650Z,49.30
2018-07-04T17:25:09.311Z,50.00
2018-07-04T17:30:23.771Z,52.00
2018-07-04T17:33:03.383Z,50.40
2018-07-04T17:35:43.047Z,50.70
2018-07-04T17:38:22.755Z,50.80
2018-07-04T17:41:02.334Z,51.50
2018-07-04T17:43:42.530Z,51.80
2018-07-04T17:46:22.240Z,52.00
2018-07-04T17:49:02.168Z,52.50
2018-07-04T17:51:41.751Z,52.80
2018-07-04T17:54:21.395Z,52.30
2018-07-04T17:57:01.534Z,53.30
2018-07-04T17:59:42.347Z,52.50
2018-07-04T18:02:22.040Z,53.00
2018-07-04T18:05:01.667Z,52.50
2018-07-04T18:07:41.386Z,52.00
2018-07-04T18:10:21.533Z,52.50
2018-07-04T18:13:01.279Z,52.90
2018-07-04T18:15:41.827Z,53.10
2018-07-04T18:18:21.624Z,53.70
2018-07-04T18:21:05.781Z,54.10
2018-07-04T18:23:45.442Z,53.70
2018-07-04T18:33:13.120Z,54.40
2018-07-04T18:35:52.843Z,54.80
2018-07-04T18:38:32.638Z,55.00
2018-07-04T18:41:12.379Z,55.20
2018-07-04T18:53:23.535Z,55.40
2018-07-04T18:56:03.254Z,56.50
2018-07-04T18:58:43.400Z,56.50
2018-07-04T19:01:23.062Z,56.90
2018-07-04T19:04:02.770Z,57.10
2018-07-04T19:06:42.507Z,57.00
2018-07-04T19:09:22.758Z,57.20
2018-07-04T19:12:02.302Z,57.30
2018-07-04T19:14:42.766Z,57.70
2018-07-04T19:17:22.355Z,57.60
2018-07-04T19:20:01.943Z,57.40
2018-07-04T19:22:42.041Z,57.40
2018-07-04T19:25:22.233Z,57.60
2018-07-04T19:28:02.115Z,57.50
2018-07-04T19:30:41.799Z,57.50
2018-07-04T19:33:21.427Z,57.80
2018-07-04T19:36:01.078Z,57.80
2018-07-04T19:38:41.115Z,58.40
2018-07-04T19:41:20.877Z,58.50
2018-07-04T19:44:00.414Z,58.30
2018-07-04T19:46:40.155Z,58.10
2018-07-04T19:49:19.858Z,58.70
2018-07-04T19:51:59.332Z,58.50
2018-07-04T19:57:12.708Z,59.30
2018-07-04T19:59:53.134Z,59.90
2018-07-04T20:02:33.005Z,60.90
2018-07-04T20:05:12.783Z,61.60
2018-07-04T20:07:52.462Z,62.40
2018-07-04T20:10:32.139Z,63.20
2018-07-04T20:13:12.239Z,64.60
2018-07-04T20:15:51.835Z,64.90
2018-07-04T20:18:31.547Z,65.10
2018-07-04T20:21:11.174Z,65.20
2018-07-04T20:23:50.838Z,65.50
2018-07-04T20:26:30.480Z,65.40
2018-07-04T20:29:10.545Z,65.20
2018-07-04T20:31:50.370Z,65.30
2018-07-04T20:34:30.039Z,66.10
2018-07-04T20:37:09.902Z,66.60
2018-07-04T20:39:49.698Z,66.90
2018-07-04T20:42:29.774Z,67.30
2018-07-04T20:45:09.426Z,67.80
2018-07-04T20:47:49.059Z,68.40
2018-07-04T20:50:28.693Z,68.70
2018-07-04T20:53:08.226Z,69.10
2018-07-04T20:55:48.039Z,69.70
2018-07-04T20:58:28.490Z,70.30
2018-07-04T21:01:08.326Z,70.60
2018-07-04T21:03:48.038Z,71.20
2018-07-04T21:06:29.169Z,71.30
2018-07-04T21:09:08.775Z,72.20
2018-07-04T21:11:49.179Z,73.10
2018-07-04T21:14:28.862Z,73.70
2018-07-04T21:17:09.270Z,74.20
2018-07-04T21:19:48.792Z,74.60
2018-07-04T21:22:28.910Z,75.00
2018-07-04T21:25:08.537Z,75.80
2018-07-04T21:27:48.135Z,76.40
2018-07-04T21:30:28.555Z,77.10
2018-07-04T21:33:08.741Z,77.80
2018-07-04T21:35:48.414Z,78.30
2018-07-04T21:38:28.482Z,78.70
2018-07-04T21:41:08.082Z,79.00
2018-07-04T21:43:47.912Z,81.10
2018-07-04T21:46:28.572Z,81.50
2018-07-04T21:49:08.607Z,83.10
2018-07-04T21:51:48.336Z,84.30
2018-07-04T21:54:28.586Z,85.00
2018-07-04T21:57:08.231Z,86.70
2018-07-04T21:59:47.870Z,87.70
2018-07-04T22:02:27.830Z,89.20
2018-07-04T22:05:07.939Z,89.80
2018-07-04T22:07:47.473Z,90.40
2018-07-04T22:10:28.777Z,90.70
2018-07-04T22:13:08.493Z,91.00
2018-07-04T22:15:48.212Z,91.40
2018-07-04T22:18:28.510Z,91.60
2018-07-04T22:21:08.631Z,91.90
2018-07-04T22:23:48.434Z,91.70
2018-07-04T22:26:28.958Z,92.10
2018-07-04T22:29:08.467Z,92.50
2018-07-04T22:31:48.087Z,92.70
2018-07-04T22:34:28.544Z,92.80
2018-07-04T22:37:08.619Z,92.80
2018-07-04T22:39:48.310Z,93.20
2018-07-04T22:45:02.446Z,93.50
2018-07-04T22:47:42.402Z,93.80
2018-07-04T22:50:22.110Z,94.10
2018-07-04T22:53:02.048Z,94.60
2018-07-04T22:55:41.796Z,95.00
2018-07-04T22:58:21.429Z,95.40
2018-07-04T23:01:01.062Z,95.30
2018-07-04T23:03:41.113Z,95.30
2018-07-04T23:06:20.971Z,95.20
2018-07-04T23:09:01.014Z,95.80
2018-07-04T23:11:40.520Z,96.00
2018-07-04T23:14:20.214Z,96.20
2018-07-04T23:16:59.839Z,96.10
2018-07-04T23:19:39.553Z,96.80
2018-07-04T23:22:19.250Z,96.80
2018-07-04T23:24:59.401Z,96.60
2018-07-04T23:30:12.870Z,97.30
2018-07-04T23:32:52.642Z,97.00
2018-07-04T23:35:32.434Z,97.10
2018-07-04T23:38:12.075Z,97.80
2018-07-04T23:40:51.877Z,97.50
2018-07-04T23:43:31.371Z,97.40
2018-07-04T23:46:11.099Z,98.10
2018-07-04T23:48:50.634Z,97.80
2018-07-04T23:51:30.358Z,98.10
2018-07-04T23:54:09.987Z,97.80
2018-07-04T23:56:50.042Z,98.10
2018-07-04T23:59:30.181Z,98.30
